sensor_id;sensor_type;location;lat;lon;timestamp;P1;durP1;ratioP1;P2;durP2;ratioP2
4309;SDS011;2168;53.576;9.980;2022-07-21T00:02:12;17.33;;;11.70;;
4309;SDS011;2168;53.576;9.980;2022-07-21T00:04:38;17.30;;;11.20;;
4309;SDS011;2168;53.576;9.980;2022-07-21T00:07:03;17.00;;;11.60;;
4309;SDS011;2168;53.576;9.980;2022-07-21T00:09:28;22.00;;;11.83;;
4309;SDS011;2168;53.576;9.980;2022-07-21T00:11:54;18.57;;;11.43;;
4309;SDS011;2168;53.576;9.980;2022-07-21T00:14:19;18.43;;;12.10;;
4309;SDS011;2168;53.576;9.980;2022-07-21T00:16:44;22.13;;;11.93;;
4309;SDS011;2168;53.576;9.980;2022-07-21T00:19:10;24.40;;;11.40;;
4309;SDS011;2168;53.576;9.980;2022-07-21T00:21:35;25.70;;;11.87;;
4309;SDS011;2168;53.576;9.980;2022-07-21T00:24:01;19.37;;;12.10;;
4309;SDS011;2168;53.576;9.980;2022-07-21T00:26:26;15.57;;;11.20;;
4309;SDS011;2168;53.576;9.980;2022-07-21T00:28:51;20.50;;;12.07;;
4309;SDS011;2168;53.576;9.980;2022-07-21T00:31:17;18.77;;;11.20;;
4309;SDS011;2168;53.576;9.980;2022-07-21T00:33:42;21.37;;;11.60;;
4309;SDS011;2168;53.576;9.980;2022-07-21T00:36:07;18.90;;;11.60;;
4309;SDS011;2168;53.576;9.980;2022-07-21T00:38:33;18.83;;;11.73;;
4309;SDS011;2168;53.576;9.980;2022-07-21T00:40:59;15.77;;;11.67;;
4309;SDS011;2168;53.576;9.980;2022-07-21T00:43:24;24.47;;;11.47;;
4309;SDS011;2168;53.576;9.980;2022-07-21T00:45:52;17.87;;;11.80;;
4309;SDS011;2168;53.576;9.980;2022-07-21T00:48:18;13.87;;;12.13;;
4309;SDS011;2168;53.576;9.980;2022-07-21T00:50:43;24.50;;;11.13;;
4309;SDS011;2168;53.576;9.980;2022-07-21T00:53:08;19.13;;;12.13;;
4309;SDS011;2168;53.576;9.980;2022-07-21T00:55:34;16.10;;;10.80;;
4309;SDS011;2168;53.576;9.980;2022-07-21T00:57:59;24.77;;;13.10;;
4309;SDS011;2168;53.576;9.980;2022-07-21T01:00:26;21.47;;;11.60;;
4309;SDS011;2168;53.576;9.980;2022-07-21T01:02:52;16.90;;;11.33;;
4309;SDS011;2168;53.576;9.980;2022-07-21T01:05:18;21.00;;;11.30;;
4309;SDS011;2168;53.576;9.980;2022-07-21T01:07:45;19.30;;;11.80;;
4309;SDS011;2168;53.576;9.980;2022-07-21T01:10:11;17.83;;;11.47;;
4309;SDS011;2168;53.576;9.980;2022-07-21T01:12:37;19.77;;;11.70;;
4309;SDS011;2168;53.576;9.980;2022-07-21T01:15:06;16.83;;;10.40;;
4309;SDS011;2168;53.576;9.980;2022-07-21T01:17:32;16.37;;;10.90;;
4309;SDS011;2168;53.576;9.980;2022-07-21T01:19:57;24.30;;;11.00;;
4309;SDS011;2168;53.576;9.980;2022-07-21T01:22:22;19.13;;;11.60;;
4309;SDS011;2168;53.576;9.980;2022-07-21T01:24:48;22.60;;;12.20;;
4309;SDS011;2168;53.576;9.980;2022-07-21T01:27:13;19.93;;;11.60;;
4309;SDS011;2168;53.576;9.980;2022-07-21T01:29:38;20.67;;;12.50;;
4309;SDS011;2168;53.576;9.980;2022-07-21T01:32:04;20.30;;;11.67;;
4309;SDS011;2168;53.576;9.980;2022-07-21T01:34:29;27.73;;;11.40;;
4309;SDS011;2168;53.576;9.980;2022-07-21T01:36:55;19.27;;;11.60;;
4309;SDS011;2168;53.576;9.980;2022-07-21T01:39:20;20.40;;;13.10;;
4309;SDS011;2168;53.576;9.980;2022-07-21T01:42:04;16.53;;;11.80;;
4309;SDS011;2168;53.576;9.980;2022-07-21T01:44:29;20.30;;;12.00;;
4309;SDS011;2168;53.576;9.980;2022-07-21T01:46:55;16.93;;;11.33;;
4309;SDS011;2168;53.576;9.980;2022-07-21T01:49:20;22.67;;;12.07;;
4309;SDS011;2168;53.576;9.980;2022-07-21T01:51:46;25.70;;;11.93;;
4309;SDS011;2168;53.576;9.980;2022-07-21T01:54:11;26.13;;;12.13;;
4309;SDS011;2168;53.576;9.980;2022-07-21T01:56:37;17.20;;;10.83;;
4309;SDS011;2168;53.576;9.980;2022-07-21T01:59:03;19.73;;;11.13;;
4309;SDS011;2168;53.576;9.980;2022-07-21T02:01:29;18.90;;;12.67;;
4309;SDS011;2168;53.576;9.980;2022-07-21T02:03:56;27.30;;;12.17;;
4309;SDS011;2168;53.576;9.980;2022-07-21T02:06:22;19.90;;;11.50;;
4309;SDS011;2168;53.576;9.980;2022-07-21T02:08:48;21.50;;;11.63;;
4309;SDS011;2168;53.576;9.980;2022-07-21T02:11:13;22.47;;;12.13;;
4309;SDS011;2168;53.576;9.980;2022-07-21T02:13:39;20.03;;;11.47;;
4309;SDS011;2168;53.576;9.980;2022-07-21T02:16:05;24.03;;;12.23;;
4309;SDS011;2168;53.576;9.980;2022-07-21T02:18:30;22.67;;;12.50;;
4309;SDS011;2168;53.576;9.980;2022-07-21T02:20:56;19.50;;;12.27;;
4309;SDS011;2168;53.576;9.980;2022-07-21T02:23:22;22.80;;;12.97;;
4309;SDS011;2168;53.576;9.980;2022-07-21T02:25:47;23.30;;;12.53;;
4309;SDS011;2168;53.576;9.980;2022-07-21T02:28:13;24.90;;;13.40;;
4309;SDS011;2168;53.576;9.980;2022-07-21T02:30:38;24.70;;;13.50;;
4309;SDS011;2168;53.576;9.980;2022-07-21T02:33:04;23.50;;;13.10;;
4309;SDS011;2168;53.576;9.980;2022-07-21T02:35:30;27.10;;;13.47;;
4309;SDS011;2168;53.576;9.980;2022-07-21T02:37:55;30.20;;;13.23;;
4309;SDS011;2168;53.576;9.980;2022-07-21T02:40:20;26.70;;;13.30;;
4309;SDS011;2168;53.576;9.980;2022-07-21T02:42:46;27.03;;;14.00;;
4309;SDS011;2168;53.576;9.980;2022-07-21T02:45:12;23.80;;;14.40;;
4309;SDS011;2168;53.576;9.980;2022-07-21T02:50:32;29.77;;;16.40;;
4309;SDS011;2168;53.576;9.980;2022-07-21T02:53:01;27.27;;;16.90;;
4309;SDS011;2168;53.576;9.980;2022-07-21T02:55:27;39.13;;;16.40;;
4309;SDS011;2168;53.576;9.980;2022-07-21T03:00:38;28.30;;;15.20;;
4309;SDS011;2168;53.576;9.980;2022-07-21T03:03:04;29.77;;;14.50;;
4309;SDS011;2168;53.576;9.980;2022-07-21T03:05:29;27.13;;;13.50;;
4309;SDS011;2168;53.576;9.980;2022-07-21T03:07:55;23.10;;;12.87;;
4309;SDS011;2168;53.576;9.980;2022-07-21T03:10:20;23.43;;;12.93;;
4309;SDS011;2168;53.576;9.980;2022-07-21T03:12:45;29.17;;;12.30;;
4309;SDS011;2168;53.576;9.980;2022-07-21T03:15:11;29.13;;;12.83;;
4309;SDS011;2168;53.576;9.980;2022-07-21T03:17:36;25.13;;;11.50;;
4309;SDS011;2168;53.576;9.980;2022-07-21T03:20:01;20.83;;;11.43;;
4309;SDS011;2168;53.576;9.980;2022-07-21T03:22:27;23.33;;;11.20;;
4309;SDS011;2168;53.576;9.980;2022-07-21T03:24:52;26.67;;;12.50;;
4309;SDS011;2168;53.576;9.980;2022-07-21T03:27:17;23.97;;;11.93;;
4309;SDS011;2168;53.576;9.980;2022-07-21T03:29:43;23.03;;;11.00;;
4309;SDS011;2168;53.576;9.980;2022-07-21T03:32:08;27.37;;;10.07;;
4309;SDS011;2168;53.576;9.980;2022-07-21T03:34:34;21.70;;;9.90;;
4309;SDS011;2168;53.576;9.980;2022-07-21T03:36:59;20.93;;;10.27;;
4309;SDS011;2168;53.576;9.980;2022-07-21T03:39:24;13.97;;;9.30;;
4309;SDS011;2168;53.576;9.980;2022-07-21T03:41:49;19.20;;;9.40;;
4309;SDS011;2168;53.576;9.980;2022-07-21T03:44:15;22.13;;;8.90;;
4309;SDS011;2168;53.576;9.980;2022-07-21T03:46:40;23.63;;;9.43;;
4309;SDS011;2168;53.576;9.980;2022-07-21T03:49:05;18.93;;;8.50;;
4309;SDS011;2168;53.576;9.980;2022-07-21T03:51:30;22.13;;;7.90;;
4309;SDS011;2168;53.576;9.980;2022-07-21T03:53:56;26.13;;;7.87;;
4309;SDS011;2168;53.576;9.980;2022-07-21T03:56:23;16.87;;;7.83;;
4309;SDS011;2168;53.576;9.980;2022-07-21T03:58:48;19.43;;;7.73;;
4309;SDS011;2168;53.576;9.980;2022-07-21T04:01:14;13.17;;;7.10;;
4309;SDS011;2168;53.576;9.980;2022-07-21T04:03:39;15.80;;;7.07;;
4309;SDS011;2168;53.576;9.980;2022-07-21T04:06:04;15.63;;;6.67;;
4309;SDS011;2168;53.576;9.980;2022-07-21T04:08:30;14.87;;;6.90;;
4309;SDS011;2168;53.576;9.980;2022-07-21T04:10:56;16.90;;;6.60;;
4309;SDS011;2168;53.576;9.980;2022-07-21T04:13:23;19.40;;;6.50;;
4309;SDS011;2168;53.576;9.980;2022-07-21T04:15:48;16.47;;;6.93;;
4309;SDS011;2168;53.576;9.980;2022-07-21T04:18:13;22.07;;;7.17;;
4309;SDS011;2168;53.576;9.980;2022-07-21T04:20:39;16.93;;;6.87;;
4309;SDS011;2168;53.576;9.980;2022-07-21T04:23:04;14.40;;;6.20;;
4309;SDS011;2168;53.576;9.980;2022-07-21T04:25:29;15.00;;;6.77;;
4309;SDS011;2168;53.576;9.980;2022-07-21T04:27:55;18.03;;;7.30;;
4309;SDS011;2168;53.576;9.980;2022-07-21T04:30:22;20.83;;;7.17;;
4309;SDS011;2168;53.576;9.980;2022-07-21T04:32:48;17.87;;;7.03;;
4309;SDS011;2168;53.576;9.980;2022-07-21T04:35:14;15.40;;;6.93;;
4309;SDS011;2168;53.576;9.980;2022-07-21T04:37:39;18.70;;;7.20;;
4309;SDS011;2168;53.576;9.980;2022-07-21T04:40:05;16.00;;;6.63;;
4309;SDS011;2168;53.576;9.980;2022-07-21T04:42:31;16.60;;;6.43;;
4309;SDS011;2168;53.576;9.980;2022-07-21T04:44:57;22.53;;;6.07;;
4309;SDS011;2168;53.576;9.980;2022-07-21T04:47:22;16.10;;;6.63;;
4309;SDS011;2168;53.576;9.980;2022-07-21T04:49:47;13.60;;;6.20;;
4309;SDS011;2168;53.576;9.980;2022-07-21T04:52:12;16.47;;;6.40;;
4309;SDS011;2168;53.576;9.980;2022-07-21T04:54:38;16.87;;;6.57;;
4309;SDS011;2168;53.576;9.980;2022-07-21T04:57:03;13.40;;;6.70;;
4309;SDS011;2168;53.576;9.980;2022-07-21T04:59:30;25.90;;;6.17;;
4309;SDS011;2168;53.576;9.980;2022-07-21T05:01:56;13.83;;;6.90;;
4309;SDS011;2168;53.576;9.980;2022-07-21T05:04:21;9.93;;;6.03;;
4309;SDS011;2168;53.576;9.980;2022-07-21T05:06:46;18.23;;;6.60;;
4309;SDS011;2168;53.576;9.980;2022-07-21T05:09:12;13.23;;;6.63;;
4309;SDS011;2168;53.576;9.980;2022-07-21T05:11:37;18.83;;;6.40;;
4309;SDS011;2168;53.576;9.980;2022-07-21T05:14:03;15.07;;;6.03;;
4309;SDS011;2168;53.576;9.980;2022-07-21T05:16:29;11.53;;;6.27;;
4309;SDS011;2168;53.576;9.980;2022-07-21T05:18:54;9.67;;;5.30;;
4309;SDS011;2168;53.576;9.980;2022-07-21T05:21:19;13.90;;;5.23;;
4309;SDS011;2168;53.576;9.980;2022-07-21T05:23:45;15.07;;;5.87;;
4309;SDS011;2168;53.576;9.980;2022-07-21T05:26:11;9.87;;;5.83;;
4309;SDS011;2168;53.576;9.980;2022-07-21T05:28:37;12.77;;;5.70;;
4309;SDS011;2168;53.576;9.980;2022-07-21T05:31:02;17.43;;;6.83;;
4309;SDS011;2168;53.576;9.980;2022-07-21T05:33:27;9.43;;;5.87;;
4309;SDS011;2168;53.576;9.980;2022-07-21T05:35:53;11.77;;;5.57;;
4309;SDS011;2168;53.576;9.980;2022-07-21T05:38:19;16.17;;;6.27;;
4309;SDS011;2168;53.576;9.980;2022-07-21T05:40:44;15.17;;;5.50;;
4309;SDS011;2168;53.576;9.980;2022-07-21T05:43:10;12.20;;;6.03;;
4309;SDS011;2168;53.576;9.980;2022-07-21T05:45:35;15.10;;;5.50;;
4309;SDS011;2168;53.576;9.980;2022-07-21T05:48:00;16.63;;;5.50;;
4309;SDS011;2168;53.576;9.980;2022-07-21T05:50:25;14.30;;;5.47;;
4309;SDS011;2168;53.576;9.980;2022-07-21T05:52:53;16.97;;;5.60;;
4309;SDS011;2168;53.576;9.980;2022-07-21T05:55:33;14.10;;;5.40;;
4309;SDS011;2168;53.576;9.980;2022-07-21T05:57:58;14.60;;;5.60;;
4309;SDS011;2168;53.576;9.980;2022-07-21T06:00:24;16.10;;;5.63;;
4309;SDS011;2168;53.576;9.980;2022-07-21T06:02:51;15.03;;;6.10;;
4309;SDS011;2168;53.576;9.980;2022-07-21T06:05:17;17.00;;;6.27;;
4309;SDS011;2168;53.576;9.980;2022-07-21T06:07:42;12.47;;;6.33;;
4309;SDS011;2168;53.576;9.980;2022-07-21T06:10:07;21.03;;;6.87;;
4309;SDS011;2168;53.576;9.980;2022-07-21T06:12:33;8.90;;;5.80;;
4309;SDS011;2168;53.576;9.980;2022-07-21T06:14:58;15.70;;;7.20;;
4309;SDS011;2168;53.576;9.980;2022-07-21T06:17:26;18.67;;;6.77;;
4309;SDS011;2168;53.576;9.980;2022-07-21T06:19:56;17.23;;;7.23;;
4309;SDS011;2168;53.576;9.980;2022-07-21T06:22:21;16.03;;;7.30;;
4309;SDS011;2168;53.576;9.980;2022-07-21T06:24:46;17.07;;;7.43;;
4309;SDS011;2168;53.576;9.980;2022-07-21T06:27:12;18.57;;;6.50;;
4309;SDS011;2168;53.576;9.980;2022-07-21T06:29:42;14.97;;;7.30;;
4309;SDS011;2168;53.576;9.980;2022-07-21T06:32:21;16.70;;;6.40;;
4309;SDS011;2168;53.576;9.980;2022-07-21T06:34:56;17.30;;;8.27;;
4309;SDS011;2168;53.576;9.980;2022-07-21T06:37:28;13.77;;;7.73;;
4309;SDS011;2168;53.576;9.980;2022-07-21T06:39:54;31.33;;;7.70;;
4309;SDS011;2168;53.576;9.980;2022-07-21T06:42:23;22.13;;;8.53;;
4309;SDS011;2168;53.576;9.980;2022-07-21T06:44:55;22.67;;;8.23;;
4309;SDS011;2168;53.576;9.980;2022-07-21T06:47:25;18.47;;;7.73;;
4309;SDS011;2168;53.576;9.980;2022-07-21T06:49:51;13.23;;;6.63;;
4309;SDS011;2168;53.576;9.980;2022-07-21T06:52:17;21.73;;;7.80;;
4309;SDS011;2168;53.576;9.980;2022-07-21T06:54:42;21.37;;;8.80;;
4309;SDS011;2168;53.576;9.980;2022-07-21T06:57:07;21.33;;;8.50;;
4309;SDS011;2168;53.576;9.980;2022-07-21T06:59:33;16.23;;;7.47;;
4309;SDS011;2168;53.576;9.980;2022-07-21T07:01:58;19.60;;;7.50;;
4309;SDS011;2168;53.576;9.980;2022-07-21T07:04:25;15.47;;;7.73;;
4309;SDS011;2168;53.576;9.980;2022-07-21T07:06:50;23.27;;;8.07;;
4309;SDS011;2168;53.576;9.980;2022-07-21T07:09:17;18.57;;;8.17;;
4309;SDS011;2168;53.576;9.980;2022-07-21T07:11:43;14.83;;;7.80;;
4309;SDS011;2168;53.576;9.980;2022-07-21T07:14:08;17.43;;;8.90;;
4309;SDS011;2168;53.576;9.980;2022-07-21T07:16:34;15.73;;;8.07;;
4309;SDS011;2168;53.576;9.980;2022-07-21T07:18:59;20.90;;;9.10;;
4309;SDS011;2168;53.576;9.980;2022-07-21T07:21:24;27.77;;;9.53;;
4309;SDS011;2168;53.576;9.980;2022-07-21T07:23:49;23.53;;;9.77;;
4309;SDS011;2168;53.576;9.980;2022-07-21T07:26:15;25.20;;;9.57;;
4309;SDS011;2168;53.576;9.980;2022-07-21T07:28:40;23.67;;;10.30;;
4309;SDS011;2168;53.576;9.980;2022-07-21T07:31:05;22.37;;;10.50;;
4309;SDS011;2168;53.576;9.980;2022-07-21T07:33:33;21.80;;;10.23;;
4309;SDS011;2168;53.576;9.980;2022-07-21T07:35:58;24.37;;;10.50;;
4309;SDS011;2168;53.576;9.980;2022-07-21T07:38:25;28.03;;;10.47;;
4309;SDS011;2168;53.576;9.980;2022-07-21T07:40:57;18.40;;;10.50;;
4309;SDS011;2168;53.576;9.980;2022-07-21T07:43:22;24.63;;;10.47;;
4309;SDS011;2168;53.576;9.980;2022-07-21T07:45:47;28.63;;;12.90;;
4309;SDS011;2168;53.576;9.980;2022-07-21T07:48:12;18.10;;;11.17;;
4309;SDS011;2168;53.576;9.980;2022-07-21T07:50:37;24.40;;;11.53;;
4309;SDS011;2168;53.576;9.980;2022-07-21T07:53:03;21.07;;;10.73;;
4309;SDS011;2168;53.576;9.980;2022-07-21T07:55:30;20.03;;;11.90;;
4309;SDS011;2168;53.576;9.980;2022-07-21T07:57:57;23.57;;;11.53;;
4309;SDS011;2168;53.576;9.980;2022-07-21T08:00:23;25.00;;;13.80;;
4309;SDS011;2168;53.576;9.980;2022-07-21T08:02:52;22.67;;;12.97;;
4309;SDS011;2168;53.576;9.980;2022-07-21T08:05:24;29.87;;;14.80;;
4309;SDS011;2168;53.576;9.980;2022-07-21T08:07:51;23.67;;;15.17;;
4309;SDS011;2168;53.576;9.980;2022-07-21T08:10:16;24.87;;;13.80;;
4309;SDS011;2168;53.576;9.980;2022-07-21T08:12:50;28.80;;;14.87;;
4309;SDS011;2168;53.576;9.980;2022-07-21T08:15:16;27.30;;;16.13;;
4309;SDS011;2168;53.576;9.980;2022-07-21T08:17:42;32.73;;;15.97;;
4309;SDS011;2168;53.576;9.980;2022-07-21T08:20:07;23.10;;;16.13;;
4309;SDS011;2168;53.576;9.980;2022-07-21T08:22:53;26.47;;;17.20;;
4309;SDS011;2168;53.576;9.980;2022-07-21T08:25:21;28.30;;;16.10;;
4309;SDS011;2168;53.576;9.980;2022-07-21T08:27:49;29.43;;;16.13;;
4309;SDS011;2168;53.576;9.980;2022-07-21T08:30:42;28.77;;;17.00;;
4309;SDS011;2168;53.576;9.980;2022-07-21T08:33:12;27.00;;;15.13;;
4309;SDS011;2168;53.576;9.980;2022-07-21T08:35:41;22.30;;;14.40;;
4309;SDS011;2168;53.576;9.980;2022-07-21T08:38:07;19.17;;;13.77;;
4309;SDS011;2168;53.576;9.980;2022-07-21T08:40:33;24.93;;;15.50;;
4309;SDS011;2168;53.576;9.980;2022-07-21T08:43:00;22.60;;;14.30;;
4309;SDS011;2168;53.576;9.980;2022-07-21T08:45:28;30.37;;;15.70;;
4309;SDS011;2168;53.576;9.980;2022-07-21T08:47:55;25.53;;;16.27;;
4309;SDS011;2168;53.576;9.980;2022-07-21T08:50:29;24.10;;;16.13;;
4309;SDS011;2168;53.576;9.980;2022-07-21T08:53:09;26.27;;;16.60;;
4309;SDS011;2168;53.576;9.980;2022-07-21T08:55:36;26.83;;;16.30;;
4309;SDS011;2168;53.576;9.980;2022-07-21T08:58:01;28.83;;;16.87;;
4309;SDS011;2168;53.576;9.980;2022-07-21T09:00:28;19.47;;;15.87;;
4309;SDS011;2168;53.576;9.980;2022-07-21T09:05:38;28.60;;;16.67;;
4309;SDS011;2168;53.576;9.980;2022-07-21T09:08:03;23.87;;;16.30;;
4309;SDS011;2168;53.576;9.980;2022-07-21T09:10:29;24.43;;;15.90;;
4309;SDS011;2168;53.576;9.980;2022-07-21T09:12:56;25.77;;;14.80;;
4309;SDS011;2168;53.576;9.980;2022-07-21T09:15:24;20.83;;;13.17;;
4309;SDS011;2168;53.576;9.980;2022-07-21T09:20:40;24.23;;;14.80;;
4309;SDS011;2168;53.576;9.980;2022-07-21T09:23:27;27.30;;;13.77;;
4309;SDS011;2168;53.576;9.980;2022-07-21T09:25:54;27.87;;;14.37;;
4309;SDS011;2168;53.576;9.980;2022-07-21T09:28:20;21.17;;;14.40;;
4309;SDS011;2168;53.576;9.980;2022-07-21T09:31:02;19.50;;;14.07;;
4309;SDS011;2168;53.576;9.980;2022-07-21T09:33:34;22.47;;;14.27;;
4309;SDS011;2168;53.576;9.980;2022-07-21T09:36:06;23.47;;;13.47;;
4309;SDS011;2168;53.576;9.980;2022-07-21T09:41:12;20.30;;;14.37;;
4309;SDS011;2168;53.576;9.980;2022-07-21T09:43:56;21.60;;;14.13;;
4309;SDS011;2168;53.576;9.980;2022-07-21T09:46:27;18.93;;;15.20;;
4309;SDS011;2168;53.576;9.980;2022-07-21T09:48:59;20.97;;;15.33;;
4309;SDS011;2168;53.576;9.980;2022-07-21T09:51:34;27.83;;;16.10;;
4309;SDS011;2168;53.576;9.980;2022-07-21T09:54:10;18.40;;;13.83;;
4309;SDS011;2168;53.576;9.980;2022-07-21T09:56:46;16.77;;;12.97;;
4309;SDS011;2168;53.576;9.980;2022-07-21T09:59:20;21.53;;;14.20;;
4309;SDS011;2168;53.576;9.980;2022-07-21T10:01:48;19.30;;;13.50;;
4309;SDS011;2168;53.576;9.980;2022-07-21T10:04:20;22.17;;;14.53;;
4309;SDS011;2168;53.576;9.980;2022-07-21T10:06:52;23.07;;;14.90;;
4309;SDS011;2168;53.576;9.980;2022-07-21T10:09:23;18.90;;;12.93;;
4309;SDS011;2168;53.576;9.980;2022-07-21T10:11:55;18.07;;;13.07;;
4309;SDS011;2168;53.576;9.980;2022-07-21T10:14:21;22.43;;;14.50;;
4309;SDS011;2168;53.576;9.980;2022-07-21T10:16:47;19.90;;;13.97;;
4309;SDS011;2168;53.576;9.980;2022-07-21T10:19:14;17.80;;;13.00;;
4309;SDS011;2168;53.576;9.980;2022-07-21T10:24:22;19.40;;;12.63;;
4309;SDS011;2168;53.576;9.980;2022-07-21T10:27:01;16.27;;;13.50;;
4309;SDS011;2168;53.576;9.980;2022-07-21T10:32:09;16.47;;;12.27;;
4309;SDS011;2168;53.576;9.980;2022-07-21T10:34:35;19.70;;;11.37;;
4309;SDS011;2168;53.576;9.980;2022-07-21T10:37:00;19.10;;;12.70;;
4309;SDS011;2168;53.576;9.980;2022-07-21T10:39:26;20.90;;;12.23;;
4309;SDS011;2168;53.576;9.980;2022-07-21T10:41:55;15.00;;;11.20;;
4309;SDS011;2168;53.576;9.980;2022-07-21T10:49:44;15.90;;;11.50;;
4309;SDS011;2168;53.576;9.980;2022-07-21T10:57:38;14.30;;;10.73;;
4309;SDS011;2168;53.576;9.980;2022-07-21T11:00:23;12.43;;;11.13;;
4309;SDS011;2168;53.576;9.980;2022-07-21T11:02:56;12.20;;;10.53;;
4309;SDS011;2168;53.576;9.980;2022-07-21T11:05:22;13.77;;;10.13;;
4309;SDS011;2168;53.576;9.980;2022-07-21T11:10:34;9.33;;;8.33;;
4309;SDS011;2168;53.576;9.980;2022-07-21T11:13:00;8.43;;;7.27;;
4309;SDS011;2168;53.576;9.980;2022-07-21T11:18:10;10.90;;;7.73;;
4309;SDS011;2168;53.576;9.980;2022-07-21T11:20:35;11.77;;;8.23;;
4309;SDS011;2168;53.576;9.980;2022-07-21T11:23:00;10.00;;;7.00;;
4309;SDS011;2168;53.576;9.980;2022-07-21T11:25:31;9.00;;;8.10;;
4309;SDS011;2168;53.576;9.980;2022-07-21T11:27:58;13.33;;;8.30;;
4309;SDS011;2168;53.576;9.980;2022-07-21T11:30:23;10.00;;;7.90;;
4309;SDS011;2168;53.576;9.980;2022-07-21T11:32:49;11.00;;;9.10;;
4309;SDS011;2168;53.576;9.980;2022-07-21T11:35:14;8.90;;;7.53;;
4309;SDS011;2168;53.576;9.980;2022-07-21T11:37:45;9.47;;;7.90;;
4309;SDS011;2168;53.576;9.980;2022-07-21T11:40:17;9.10;;;8.17;;
4309;SDS011;2168;53.576;9.980;2022-07-21T11:42:44;13.10;;;9.40;;
4309;SDS011;2168;53.576;9.980;2022-07-21T11:45:10;7.77;;;6.93;;
4309;SDS011;2168;53.576;9.980;2022-07-21T11:47:38;10.20;;;8.30;;
4309;SDS011;2168;53.576;9.980;2022-07-21T11:50:08;9.03;;;7.80;;
4309;SDS011;2168;53.576;9.980;2022-07-21T11:52:35;8.20;;;7.00;;
4309;SDS011;2168;53.576;9.980;2022-07-21T11:55:10;10.87;;;8.20;;
4309;SDS011;2168;53.576;9.980;2022-07-21T11:57:41;16.83;;;8.40;;
4309;SDS011;2168;53.576;9.980;2022-07-21T12:00:06;8.07;;;7.27;;
4309;SDS011;2168;53.576;9.980;2022-07-21T12:02:33;8.97;;;8.17;;
4309;SDS011;2168;53.576;9.980;2022-07-21T12:04:59;12.10;;;7.07;;
4309;SDS011;2168;53.576;9.980;2022-07-21T12:09:51;8.13;;;7.43;;
4309;SDS011;2168;53.576;9.980;2022-07-21T12:12:27;7.97;;;6.40;;
4309;SDS011;2168;53.576;9.980;2022-07-21T12:14:55;8.47;;;5.87;;
4309;SDS011;2168;53.576;9.980;2022-07-21T12:17:37;6.97;;;5.73;;
4309;SDS011;2168;53.576;9.980;2022-07-21T12:20:03;8.43;;;5.37;;
4309;SDS011;2168;53.576;9.980;2022-07-21T12:22:33;7.97;;;5.77;;
4309;SDS011;2168;53.576;9.980;2022-07-21T12:24:58;5.50;;;5.00;;
4309;SDS011;2168;53.576;9.980;2022-07-21T12:27:24;6.20;;;5.60;;
4309;SDS011;2168;53.576;9.980;2022-07-21T12:29:49;6.10;;;5.53;;
4309;SDS011;2168;53.576;9.980;2022-07-21T12:32:23;7.87;;;7.27;;
4309;SDS011;2168;53.576;9.980;2022-07-21T12:35:00;8.53;;;7.63;;
4309;SDS011;2168;53.576;9.980;2022-07-21T12:37:50;9.70;;;8.07;;
4309;SDS011;2168;53.576;9.980;2022-07-21T12:40:11;9.20;;;6.87;;
4309;SDS011;2168;53.576;9.980;2022-07-21T12:42:36;7.03;;;6.40;;
4309;SDS011;2168;53.576;9.980;2022-07-21T12:45:13;6.43;;;5.80;;
4309;SDS011;2168;53.576;9.980;2022-07-21T12:47:39;11.93;;;9.23;;
4309;SDS011;2168;53.576;9.980;2022-07-21T12:50:06;6.53;;;4.80;;
4309;SDS011;2168;53.576;9.980;2022-07-21T12:52:31;6.17;;;5.60;;
4309;SDS011;2168;53.576;9.980;2022-07-21T12:54:57;6.03;;;5.43;;
4309;SDS011;2168;53.576;9.980;2022-07-21T12:57:26;9.33;;;6.43;;
4309;SDS011;2168;53.576;9.980;2022-07-21T12:59:52;7.33;;;5.93;;
4309;SDS011;2168;53.576;9.980;2022-07-21T13:02:18;7.93;;;5.30;;
4309;SDS011;2168;53.576;9.980;2022-07-21T13:04:43;6.53;;;5.60;;
4309;SDS011;2168;53.576;9.980;2022-07-21T13:07:09;5.30;;;4.80;;
4309;SDS011;2168;53.576;9.980;2022-07-21T13:09:34;8.40;;;6.10;;
4309;SDS011;2168;53.576;9.980;2022-07-21T13:12:00;8.43;;;6.00;;
4309;SDS011;2168;53.576;9.980;2022-07-21T13:14:25;6.53;;;5.50;;
4309;SDS011;2168;53.576;9.980;2022-07-21T13:16:50;6.73;;;5.40;;
4309;SDS011;2168;53.576;9.980;2022-07-21T13:19:17;6.50;;;5.90;;
4309;SDS011;2168;53.576;9.980;2022-07-21T13:21:42;7.10;;;5.40;;
4309;SDS011;2168;53.576;9.980;2022-07-21T13:24:08;7.60;;;5.93;;
4309;SDS011;2168;53.576;9.980;2022-07-21T13:26:34;7.93;;;7.17;;
4309;SDS011;2168;53.576;9.980;2022-07-21T13:29:03;9.00;;;6.00;;
4309;SDS011;2168;53.576;9.980;2022-07-21T13:31:31;7.20;;;6.50;;
4309;SDS011;2168;53.576;9.980;2022-07-21T13:34:00;6.77;;;5.80;;
4309;SDS011;2168;53.576;9.980;2022-07-21T13:36:28;7.10;;;6.40;;
4309;SDS011;2168;53.576;9.980;2022-07-21T13:38:55;10.03;;;6.17;;
4309;SDS011;2168;53.576;9.980;2022-07-21T13:41:21;8.83;;;5.73;;
4309;SDS011;2168;53.576;9.980;2022-07-21T13:43:46;7.07;;;6.00;;
4309;SDS011;2168;53.576;9.980;2022-07-21T13:46:11;6.50;;;4.60;;
4309;SDS011;2168;53.576;9.980;2022-07-21T13:48:37;5.07;;;4.67;;
4309;SDS011;2168;53.576;9.980;2022-07-21T13:51:03;5.50;;;5.00;;
4309;SDS011;2168;53.576;9.980;2022-07-21T13:53:28;7.20;;;5.57;;
4309;SDS011;2168;53.576;9.980;2022-07-21T13:55:53;6.50;;;4.93;;
4309;SDS011;2168;53.576;9.980;2022-07-21T13:58:19;4.73;;;4.33;;
4309;SDS011;2168;53.576;9.980;2022-07-21T14:00:44;3.37;;;3.07;;
4309;SDS011;2168;53.576;9.980;2022-07-21T14:03:09;6.30;;;3.17;;
4309;SDS011;2168;53.576;9.980;2022-07-21T14:05:35;3.30;;;3.10;;
4309;SDS011;2168;53.576;9.980;2022-07-21T14:08:00;2.97;;;2.77;;
4309;SDS011;2168;53.576;9.980;2022-07-21T14:10:26;3.27;;;2.70;;
4309;SDS011;2168;53.576;9.980;2022-07-21T14:12:51;4.17;;;3.87;;
4309;SDS011;2168;53.576;9.980;2022-07-21T14:15:16;4.27;;;3.77;;
4309;SDS011;2168;53.576;9.980;2022-07-21T14:17:42;3.83;;;3.47;;
4309;SDS011;2168;53.576;9.980;2022-07-21T14:20:07;4.00;;;3.60;;
4309;SDS011;2168;53.576;9.980;2022-07-21T14:22:32;3.90;;;3.40;;
4309;SDS011;2168;53.576;9.980;2022-07-21T14:24:58;5.03;;;3.40;;
4309;SDS011;2168;53.576;9.980;2022-07-21T14:27:42;4.13;;;3.73;;
4309;SDS011;2168;53.576;9.980;2022-07-21T14:30:07;3.67;;;3.23;;
4309;SDS011;2168;53.576;9.980;2022-07-21T14:32:33;6.43;;;3.37;;
4309;SDS011;2168;53.576;9.980;2022-07-21T14:34:58;3.67;;;3.40;;
4309;SDS011;2168;53.576;9.980;2022-07-21T14:37:24;3.80;;;3.50;;
4309;SDS011;2168;53.576;9.980;2022-07-21T14:39:50;3.50;;;3.20;;
4309;SDS011;2168;53.576;9.980;2022-07-21T14:42:15;4.20;;;3.87;;
4309;SDS011;2168;53.576;9.980;2022-07-21T14:44:41;4.60;;;4.20;;
4309;SDS011;2168;53.576;9.980;2022-07-21T14:47:08;3.50;;;3.30;;
4309;SDS011;2168;53.576;9.980;2022-07-21T14:49:36;4.10;;;3.47;;
4309;SDS011;2168;53.576;9.980;2022-07-21T14:52:07;8.93;;;7.57;;
4309;SDS011;2168;53.576;9.980;2022-07-21T14:54:34;4.03;;;3.73;;
4309;SDS011;2168;53.576;9.980;2022-07-21T14:56:59;3.67;;;3.40;;
4309;SDS011;2168;53.576;9.980;2022-07-21T14:59:25;3.93;;;3.70;;
4309;SDS011;2168;53.576;9.980;2022-07-21T15:01:50;4.53;;;4.13;;
4309;SDS011;2168;53.576;9.980;2022-07-21T15:04:16;6.30;;;4.37;;
4309;SDS011;2168;53.576;9.980;2022-07-21T15:06:42;6.50;;;6.00;;
4309;SDS011;2168;53.576;9.980;2022-07-21T15:09:10;4.53;;;3.93;;
4309;SDS011;2168;53.576;9.980;2022-07-21T15:11:35;5.00;;;4.60;;
4309;SDS011;2168;53.576;9.980;2022-07-21T15:14:00;4.83;;;4.30;;
4309;SDS011;2168;53.576;9.980;2022-07-21T15:16:25;6.00;;;5.40;;
4309;SDS011;2168;53.576;9.980;2022-07-21T15:18:51;5.20;;;4.70;;
4309;SDS011;2168;53.576;9.980;2022-07-21T15:21:16;6.13;;;5.60;;
4309;SDS011;2168;53.576;9.980;2022-07-21T15:23:41;6.43;;;5.83;;
4309;SDS011;2168;53.576;9.980;2022-07-21T15:26:07;7.17;;;6.57;;
4309;SDS011;2168;53.576;9.980;2022-07-21T15:28:32;6.00;;;5.40;;
4309;SDS011;2168;53.576;9.980;2022-07-21T15:30:57;7.47;;;6.90;;
4309;SDS011;2168;53.576;9.980;2022-07-21T15:33:23;9.53;;;7.90;;
4309;SDS011;2168;53.576;9.980;2022-07-21T15:35:48;7.10;;;6.50;;